Time;durP1;ratioP1;P1;durP2;ratioP2;P2;SDS_P1;SDS_P2;PMS_P1;PMS_P2;Temp;Humidity;BMP_temperature;BMP_pressure;BME280_temperature;BME280_humidity;BME280_pressure;Samples;Min_cycle;Max_cycle;Signal;HPM_P1;HPM_P2
2021/11/14 00:01:09;;;;;;;11.88;3.22;;;;;;;6.61;87.07;101454.38;5022092;28;20022;-75
2021/11/14 00:03:35;;;;;;;12.38;3.92;;;;;;;6.62;86.95;101452.63;5023283;28;20058;-74
2021/11/14 00:06:02;;;;;;;4.00;2.63;;;;;;;6.59;87.35;101462.88;5021975;28;20029;-74
2021/11/14 00:08:29;;;;;;;8.75;3.20;;;;;;;6.55;87.38;101454.22;5021970;28;20048;-73
2021/11/14 00:11:00;;;;;;;11.52;3.97;;;;;;;6.59;87.42;101448.28;5022802;28;20018;-74
2021/11/14 00:13:27;;;;;;;7.25;3.20;;;;;;;6.60;87.30;101444.84;5021959;28;20030;-73
2021/11/14 00:15:54;;;;;;;7.50;3.58;;;;;;;6.54;87.37;101447.28;5023065;28;20026;-74
2021/11/14 00:18:20;;;;;;;8.02;2.75;;;;;;;6.62;87.02;101452.63;5023205;28;20109;-74
2021/11/14 00:20:47;;;;;;;7.10;3.25;;;;;;;6.59;87.20;101458.59;5023282;28;20018;-75
2021/11/14 00:23:14;;;;;;;8.18;3.30;;;;;;;6.57;87.47;101461.16;5022950;28;20030;-73
2021/11/14 00:25:39;;;;;;;13.30;4.25;;;;;;;6.59;87.16;101466.34;5022955;28;20569;-74
2021/11/14 00:28:06;;;;;;;14.10;3.53;;;;;;;6.58;87.31;101456.88;5022965;28;20045;-75
2021/11/14 00:30:33;;;;;;;12.43;3.53;;;;;;;6.58;87.25;101456.88;5022425;28;20030;-74
2021/11/14 00:32:58;;;;;;;12.75;3.65;;;;;;;6.54;87.49;101453.31;5022352;28;20029;-74
2021/11/14 00:35:24;;;;;;;7.57;2.90;;;;;;;6.59;87.38;101468.03;5022831;28;20382;-74
2021/11/14 00:37:50;;;;;;;8.82;4.18;;;;;;;6.56;87.71;101461.09;5023060;28;20034;-73
2021/11/14 00:40:21;;;;;;;6.13;3.10;;;;;;;6.58;87.80;101467.19;5024039;28;20024;-74
2021/11/14 00:42:46;;;;;;;5.40;1.98;;;;;;;6.58;87.36;101469.78;5026784;28;20049;-74
2021/11/14 00:45:12;;;;;;;7.22;3.30;;;;;;;6.57;87.70;101479.22;5025251;28;20080;-74
2021/11/14 00:47:40;;;;;;;14.25;3.70;;;;;;;6.60;87.54;101488.72;5026875;28;20053;-74
2021/11/14 00:50:10;;;;;;;7.85;4.13;;;;;;;6.58;87.44;101482.66;5026489;28;20026;-74
2021/11/14 00:52:36;;;;;;;11.07;2.72;;;;;;;6.60;87.27;101500.78;5026470;28;20086;-74
2021/11/14 00:55:04;;;;;;;7.03;3.03;;;;;;;6.58;87.17;101493.00;5026457;28;20048;-74
2021/11/14 00:57:30;;;;;;;10.82;3.72;;;;;;;6.47;87.30;101476.34;5026597;28;20022;-74
2021/11/14 00:59:55;;;;;;;7.55;3.67;;;;;;;6.56;87.51;101503.28;5025115;28;20026;-74
2021/11/14 01:02:21;;;;;;;9.30;3.50;;;;;;;6.59;87.16;101493.84;5026116;28;20022;-73
2021/11/14 01:04:46;;;;;;;9.75;3.45;;;;;;;6.49;87.36;101490.16;5026263;28;20122;-74
2021/11/14 01:07:12;;;;;;;9.65;2.88;;;;;;;6.50;87.63;101492.75;5026195;28;20022;-74
2021/11/14 01:09:39;;;;;;;10.07;4.05;;;;;;;6.59;87.42;101509.31;5026038;28;20033;-74
2021/11/14 01:12:05;;;;;;;16.85;4.13;;;;;;;6.48;87.48;101499.63;5024829;28;20121;-74
2021/11/14 01:14:31;;;;;;;7.55;3.40;;;;;;;6.55;87.82;101516.13;5025062;28;20490;-74
2021/11/14 01:16:56;;;;;;;9.50;4.25;;;;;;;6.63;87.35;101518.91;5025432;28;20053;-74
2021/11/14 01:19:22;;;;;;;11.98;2.95;;;;;;;6.58;87.44;101521.38;5026223;28;20022;-74
2021/11/14 01:21:47;;;;;;;9.27;3.47;;;;;;;6.59;87.48;101532.53;5026125;28;20046;-73
2021/11/14 01:24:15;;;;;;;9.20;3.45;;;;;;;6.56;87.75;101528.19;5024452;28;20526;-74
2021/11/14 01:26:41;;;;;;;5.63;3.20;;;;;;;6.52;87.75;101522.06;5024569;28;20021;-74
2021/11/14 01:29:06;;;;;;;6.28;3.17;;;;;;;6.53;87.75;101523.81;5025814;28;20042;-74
2021/11/14 01:31:32;;;;;;;11.50;3.30;;;;;;;6.63;87.60;101539.56;5026224;28;20102;-74
2021/11/14 01:33:57;;;;;;;8.65;3.83;;;;;;;6.60;87.58;101540.31;5025482;28;20390;-74
2021/11/14 01:36:23;;;;;;;8.80;3.30;;;;;;;6.60;87.69;101534.31;5025603;28;20117;-74
2021/11/14 01:38:54;;;;;;;8.45;3.80;;;;;;;6.58;87.77;101536.84;5025912;28;20026;-74
2021/11/14 01:41:19;;;;;;;6.50;3.55;;;;;;;6.63;87.71;101531.81;5025188;28;20030;-74
2021/11/14 01:43:49;;;;;;;18.15;4.68;;;;;;;6.61;87.43;101546.38;5025661;28;20493;-74
2021/11/14 01:46:15;;;;;;;10.65;3.85;;;;;;;6.62;87.57;101541.25;5023891;28;20038;-74
2021/11/14 01:48:41;;;;;;;9.55;4.22;;;;;;;6.64;87.40;101543.88;5025398;28;20124;-74
2021/11/14 01:51:07;;;;;;;11.23;5.55;;;;;;;6.61;87.47;101542.09;5023828;28;20022;-74
2021/11/14 01:53:35;;;;;;;9.38;4.28;;;;;;;6.59;87.57;101545.44;5025131;28;20041;-74
2021/11/14 01:56:02;;;;;;;9.35;3.80;;;;;;;6.54;87.66;101538.47;5024964;28;20114;-74
2021/11/14 01:58:28;;;;;;;6.03;3.53;;;;;;;6.51;87.64;101540.09;5025331;28;20018;-74
2021/11/14 02:01:01;;;;;;;9.38;3.50;;;;;;;6.56;87.73;101554.88;5025303;28;20022;-74
2021/11/14 02:03:28;;;;;;;7.35;2.95;;;;;;;6.55;87.77;101552.25;5025484;28;20025;-74
2021/11/14 02:05:55;;;;;;;5.63;3.45;;;;;;;6.57;87.72;101556.63;5023886;28;20033;-74
2021/11/14 02:08:20;;;;;;;8.18;3.53;;;;;;;6.53;87.62;101544.44;5023561;28;20022;-73
2021/11/14 02:10:47;;;;;;;10.68;4.10;;;;;;;6.59;87.69;101553.19;5024965;28;20022;-74
2021/11/14 02:13:13;;;;;;;6.25;3.33;;;;;;;6.57;87.58;101550.56;5025202;28;20052;-74
2021/11/14 02:15:40;;;;;;;9.45;3.83;;;;;;;6.54;87.72;101559.13;5024975;28;20053;-74
2021/11/14 02:18:08;;;;;;;14.00;4.47;;;;;;;6.56;87.73;101554.00;5024885;28;20042;-74
2021/11/14 02:20:34;;;;;;;12.15;5.00;;;;;;;6.59;87.75;101559.22;5025089;28;20041;-74
2021/11/14 02:23:01;;;;;;;6.70;3.08;;;;;;;6.61;87.68;101557.59;5024595;28;20024;-74
2021/11/14 02:25:26;;;;;;;9.52;3.28;;;;;;;6.61;87.51;101567.91;5023298;28;20125;-74
2021/11/14 02:27:54;;;;;;;17.25;4.13;;;;;;;6.57;87.78;101569.50;5024666;28;20054;-74
2021/11/14 02:30:21;;;;;;;4.50;2.67;;;;;;;6.54;88.00;101569.44;5024428;28;20073;-73
2021/11/14 02:32:47;;;;;;;8.73;4.40;;;;;;;6.64;87.51;101583.47;5024402;28;20089;-74
2021/11/14 02:35:14;;;;;;;9.75;4.03;;;;;;;6.61;87.56;101575.63;5023168;28;20018;-74
2021/11/14 02:37:39;;;;;;;9.65;3.80;;;;;;;6.54;87.78;101584.91;5023205;28;20026;-73
2021/11/14 02:40:07;;;;;;;14.10;4.70;;;;;;;6.60;87.89;101583.34;5024466;28;20033;-73
2021/11/14 02:42:33;;;;;;;10.75;3.47;;;;;;;6.57;87.84;101587.56;5024772;28;20025;-73
2021/11/14 02:44:58;;;;;;;11.05;4.30;;;;;;;6.59;87.86;101592.78;5024324;28;20044;-73
2021/11/14 02:47:23;;;;;;;11.82;4.80;;;;;;;6.60;87.99;101589.34;5024548;28;20026;-74
2021/11/14 02:49:49;;;;;;;10.68;4.32;;;;;;;6.54;88.07;101574.59;5024365;28;20402;-73
2021/11/14 02:52:14;;;;;;;8.95;4.20;;;;;;;6.53;88.08;101580.56;5022606;28;20022;-74
2021/11/14 02:54:40;;;;;;;11.32;3.78;;;;;;;6.54;88.31;101581.44;5022976;28;20037;-74
2021/11/14 02:57:06;;;;;;;13.55;4.35;;;;;;;6.58;88.12;101588.47;5024092;28;20036;-73
2021/11/14 02:59:33;;;;;;;15.90;5.18;;;;;;;6.57;88.20;101589.28;5022676;28;20041;-73
2021/11/14 03:01:59;;;;;;;15.13;5.13;;;;;;;6.67;88.21;101599.03;5024030;28;20053;-73
2021/11/14 03:04:27;;;;;;;12.25;4.65;;;;;;;6.66;87.88;101597.25;5023916;28;20032;-74
2021/11/14 03:06:54;;;;;;;12.00;4.38;;;;;;;6.56;88.00;101593.59;5022732;28;20057;-73
2021/11/14 03:09:20;;;;;;;14.02;4.07;;;;;;;6.64;87.86;101603.22;5022749;28;20041;-73
2021/11/14 03:11:46;;;;;;;17.63;4.80;;;;;;;6.65;87.60;101603.25;5023714;28;20026;-74
2021/11/14 03:14:11;;;;;;;11.15;3.75;;;;;;;6.62;87.50;101595.44;5023926;28;20025;-73
2021/11/14 03:16:38;;;;;;;10.73;4.05;;;;;;;6.62;87.63;101603.19;5023703;28;20029;-73
2021/11/14 03:19:03;;;;;;;17.75;3.92;;;;;;;6.66;87.40;101609.31;5023917;28;20029;-73
2021/11/14 03:21:29;;;;;;;10.57;5.07;;;;;;;6.62;87.55;101605.75;5022268;28;20034;-74
2021/11/14 03:23:54;;;;;;;11.35;4.55;;;;;;;6.62;87.53;101608.34;5023541;28;20054;-73
2021/11/14 03:26:21;;;;;;;11.85;4.70;;;;;;;6.68;87.44;101618.84;5023542;28;20033;-74
2021/11/14 03:28:47;;;;;;;8.63;3.45;;;;;;;6.69;87.43;101619.72;5023613;28;20114;-74
2021/11/14 03:31:13;;;;;;;13.05;4.20;;;;;;;6.70;86.89;101616.28;5023653;28;20477;-73
2021/11/14 03:33:41;;;;;;;10.23;3.40;;;;;;;6.72;86.92;101612.06;5023480;28;20056;-73
2021/11/14 03:36:10;;;;;;;13.90;3.55;;;;;;;6.71;86.78;101620.59;5023539;28;20047;-74
2021/11/14 03:38:40;;;;;;;7.82;3.28;;;;;;;6.62;87.16;101622.94;5023894;28;20092;-73
2021/11/14 03:41:07;;;;;;;15.90;4.57;;;;;;;6.69;86.82;101632.63;5022107;28;20438;-74
2021/11/14 03:43:34;;;;;;;13.35;4.13;;;;;;;6.68;86.93;101636.91;5023386;28;20085;-73
2021/11/14 03:45:59;;;;;;;4.95;2.60;;;;;;;6.65;86.62;101643.66;5023422;28;20026;-74
2021/11/14 03:48:26;;;;;;;8.10;2.95;;;;;;;6.68;86.43;101657.53;5023215;28;20018;-74
2021/11/14 03:50:51;;;;;;;6.20;2.70;;;;;;;6.64;86.53;101649.69;5023492;28;20026;-74
2021/11/14 03:53:17;;;;;;;9.45;3.40;;;;;;;6.66;85.88;101669.53;5023217;28;20167;-72
2021/11/14 03:55:43;;;;;;;9.10;4.13;;;;;;;6.65;86.22;101665.19;5023004;28;20030;-73
2021/11/14 03:58:08;;;;;;;10.30;3.20;;;;;;;6.69;86.04;101669.59;5023465;28;20126;-75
2021/11/14 04:00:39;;;;;;;10.15;3.25;;;;;;;6.64;86.14;101668.63;5023355;28;20021;-73
2021/11/14 04:03:05;;;;;;;8.95;3.20;;;;;;;6.70;85.74;101665.31;5023485;28;20045;-74
2021/11/14 04:05:30;;;;;;;9.68;3.00;;;;;;;6.69;85.71;101676.50;5023180;28;20409;-73
2021/11/14 04:07:58;;;;;;;10.95;3.75;;;;;;;6.64;85.95;101683.22;5022014;28;20092;-73
2021/11/14 04:10:24;;;;;;;11.40;2.83;;;;;;;6.64;85.45;101676.38;5023033;28;20088;-73
2021/11/14 04:12:50;;;;;;;10.65;3.97;;;;;;;6.59;85.60;101684.78;5023350;28;20032;-73
2021/11/14 04:15:16;;;;;;;6.72;2.35;;;;;;;6.62;85.40;101696.09;5023020;28;20021;-73
2021/11/14 04:17:43;;;;;;;10.32;3.13;;;;;;;6.60;85.63;101697.72;5025773;28;20354;-73
2021/11/14 04:20:10;;;;;;;10.27;3.90;;;;;;;6.61;85.69;101704.66;5027086;28;20468;-72
2021/11/14 04:22:37;;;;;;;9.30;4.00;;;;;;;6.57;85.81;101705.38;5026862;28;20037;-74
2021/11/14 04:25:03;;;;;;;10.10;3.70;;;;;;;6.59;85.81;101714.06;5026581;28;20025;-73
2021/11/14 04:27:29;;;;;;;16.48;4.38;;;;;;;6.55;85.98;101712.22;5026755;28;20022;-73
2021/11/14 04:29:54;;;;;;;11.02;3.60;;;;;;;6.55;86.12;101717.38;5025543;28;20050;-74
2021/11/14 04:32:19;;;;;;;9.02;3.65;;;;;;;6.47;85.97;101724.03;5025721;28;20061;-74
2021/11/14 04:34:45;;;;;;;11.40;3.97;;;;;;;6.47;85.94;101717.13;5025514;28;20018;-73
2021/11/14 04:37:10;;;;;;;9.20;3.35;;;;;;;6.51;85.97;101731.00;5026850;28;20053;-74
2021/11/14 04:39:36;;;;;;;9.52;3.67;;;;;;;6.51;86.06;101731.91;5026741;28;20106;-74
2021/11/14 04:42:08;;;;;;;10.45;4.20;;;;;;;6.52;86.09;101740.50;5026727;28;20048;-74
2021/11/14 04:44:35;;;;;;;7.45;3.33;;;;;;;6.48;85.99;101738.66;5026556;28;20042;-74
2021/11/14 04:47:00;;;;;;;8.40;3.42;;;;;;;6.45;85.80;101729.13;5026663;28;20049;-74
2021/11/14 04:49:26;;;;;;;10.70;3.70;;;;;;;6.35;85.99;101735.72;5026404;28;20061;-74
2021/11/14 04:51:51;;;;;;;12.43;3.90;;;;;;;6.36;85.92;101734.03;5026542;28;20184;-73
2021/11/14 04:54:19;;;;;;;10.48;3.50;;;;;;;6.33;86.08;101732.19;5024990;28;20101;-74
2021/11/14 04:56:45;;;;;;;9.38;3.85;;;;;;;6.33;86.01;101737.34;5026265;28;20439;-74
2021/11/14 04:59:11;;;;;;;8.98;4.22;;;;;;;6.28;85.88;101744.06;5026529;28;20474;-75
2021/11/14 05:01:38;;;;;;;7.68;2.92;;;;;;;6.23;85.93;101740.50;5026392;28;20033;-75
2021/11/14 05:04:04;;;;;;;9.77;3.03;;;;;;;6.22;85.42;101738.72;5026392;28;20044;-74
2021/11/14 05:06:30;;;;;;;5.68;3.58;;;;;;;6.16;85.62;101745.47;5024946;28;20026;-74
2021/11/14 05:08:55;;;;;;;19.67;4.63;;;;;;;6.10;85.41;101731.50;5026501;28;20025;-74
2021/11/14 05:11:21;;;;;;;9.80;4.10;;;;;;;6.09;85.61;101737.50;5026095;28;20025;-74
2021/11/14 05:13:46;;;;;;;7.70;3.97;;;;;;;6.03;85.76;101743.28;5025015;28;20045;-74
2021/11/14 05:16:13;;;;;;;9.00;3.60;;;;;;;6.08;85.66;101752.06;5024801;28;20025;-74
2021/11/14 05:18:39;;;;;;;7.43;2.90;;;;;;;6.04;85.39;101750.16;5026064;28;20033;-74
2021/11/14 05:21:05;;;;;;;12.20;4.13;;;;;;;5.92;85.28;101743.81;5025976;28;20014;-74
2021/11/14 05:23:31;;;;;;;11.93;3.88;;;;;;;5.94;85.45;101761.91;5025688;28;20456;-74
2021/11/14 05:25:57;;;;;;;7.07;3.10;;;;;;;5.87;85.79;101749.63;5025266;28;20049;-74
2021/11/14 05:28:22;;;;;;;9.35;4.28;;;;;;;5.85;85.82;101756.47;5023691;28;20045;-73
2021/11/14 05:30:47;;;;;;;8.55;3.40;;;;;;;5.87;85.74;101773.72;5026025;28;20041;-74
2021/11/14 05:33:13;;;;;;;8.77;3.50;;;;;;;5.87;86.05;101768.56;5024580;28;20033;-73
2021/11/14 05:35:39;;;;;;;11.30;4.38;;;;;;;5.82;86.15;101767.53;5025635;28;20470;-74
2021/11/14 05:38:05;;;;;;;7.07;4.00;;;;;;;5.88;86.13;101775.47;5025676;28;20077;-74
2021/11/14 05:40:31;;;;;;;7.10;3.72;;;;;;;5.90;86.08;101784.13;5025516;28;20026;-73
2021/11/14 05:42:56;;;;;;;9.48;3.90;;;;;;;5.88;86.04;101782.34;5024636;28;20044;-74
2021/11/14 05:45:22;;;;;;;14.85;4.65;;;;;;;5.75;86.08;101770.75;5023928;28;20033;-73
2021/11/14 05:47:48;;;;;;;7.30;3.17;;;;;;;5.82;86.13;101775.25;5025737;28;20021;-73
2021/11/14 05:50:14;;;;;;;9.38;3.78;;;;;;;5.81;86.16;101789.84;5025160;28;20033;-74
2021/11/14 05:52:40;;;;;;;7.78;3.70;;;;;;;5.76;86.27;101777.63;5025350;28;20022;-74
2021/11/14 05:55:06;;;;;;;7.45;3.17;;;;;;;5.78;86.26;101791.47;5023884;28;20060;-73
2021/11/14 05:57:43;;;;;;;7.28;3.55;;;;;;;5.78;86.25;101791.47;5023928;28;20022;-73
2021/11/14 06:00:12;;;;;;;8.38;3.42;;;;;;;5.81;86.03;101788.97;5023942;28;20029;-74
2021/11/14 06:02:42;;;;;;;8.77;3.55;;;;;;;5.79;86.17;101796.66;5023998;28;20018;-73
2021/11/14 06:07:34;;;;;;;4.00;2.80;;;;;;;5.83;86.22;101818.28;5025233;28;20089;-73
2021/11/14 06:10:01;;;;;;;5.35;2.65;;;;;;;5.77;86.05;101823.19;5023494;28;20057;-73
2021/11/14 06:12:27;;;;;;;11.43;5.50;;;;;;;5.84;86.33;101838.06;5024937;28;20037;-73
2021/11/14 06:14:53;;;;;;;6.32;2.97;;;;;;;5.87;86.14;101832.13;5024717;28;20117;-74
2021/11/14 06:17:20;;;;;;;8.15;3.08;;;;;;;5.89;85.99;101836.53;5024796;28;20060;-74
2021/11/14 06:19:49;;;;;;;9.82;4.00;;;;;;;5.93;85.67;101840.94;5024653;28;20048;-74
2021/11/14 06:22:16;;;;;;;8.63;3.53;;;;;;;5.92;86.15;101836.63;5024820;28;20026;-74
2021/11/14 06:24:41;;;;;;;8.57;4.95;;;;;;;5.85;86.14;101842.38;5024469;28;20026;-74
2021/11/14 06:27:07;;;;;;;3.72;2.40;;;;;;;5.90;85.90;101851.16;5024758;28;20033;-73
2021/11/14 06:29:32;;;;;;;8.88;2.88;;;;;;;5.91;86.06;101858.03;5024624;28;20054;-73
2021/11/14 06:31:58;;;;;;;8.88;3.42;;;;;;;5.86;86.08;101857.03;5024836;28;20029;-73
2021/11/14 06:34:23;;;;;;;6.05;2.83;;;;;;;5.91;85.95;101862.34;5024626;28;20385;-73
2021/11/14 06:36:48;;;;;;;5.70;3.78;;;;;;;5.89;86.09;101864.00;5025571;28;20477;-72
2021/11/14 06:39:14;;;;;;;6.22;3.72;;;;;;;5.85;86.16;101854.41;5024464;28;20473;-74
2021/11/14 06:41:39;;;;;;;5.78;2.78;;;;;;;5.82;86.10;101863.78;5022935;28;20026;-72
2021/11/14 06:44:05;;;;;;;9.93;3.63;;;;;;;5.81;85.69;101871.44;5024547;28;20022;-73
2021/11/14 06:46:30;;;;;;;5.63;3.05;;;;;;;5.82;85.58;101876.66;5024240;28;20076;-74
2021/11/14 06:48:55;;;;;;;9.35;3.33;;;;;;;5.82;85.75;101886.09;5024354;28;20022;-73
2021/11/14 06:51:21;;;;;;;6.53;3.55;;;;;;;5.79;85.94;101894.59;5024159;28;20109;-73
2021/11/14 06:53:46;;;;;;;7.88;3.45;;;;;;;5.78;86.07;101895.41;5023930;28;20035;-73
2021/11/14 06:56:12;;;;;;;9.65;3.65;;;;;;;5.83;86.13;101899.03;5023992;28;20025;-73
2021/11/14 06:58:37;;;;;;;11.88;3.85;;;;;;;5.84;86.38;101902.50;5024000;28;20161;-73
2021/11/14 07:01:02;;;;;;;7.70;3.65;;;;;;;5.85;86.07;101906.81;5024127;28;20022;-73
2021/11/14 07:03:28;;;;;;;7.07;2.92;;;;;;;5.84;85.85;101907.66;5022578;28;20045;-73
2021/11/14 07:05:53;;;;;;;4.35;2.95;;;;;;;5.86;85.83;101918.91;5024049;28;20056;-73
2021/11/14 07:08:19;;;;;;;4.55;2.60;;;;;;;5.83;85.75;101916.22;5023780;28;20026;-73
2021/11/14 07:10:45;;;;;;;7.63;2.80;;;;;;;5.90;86.17;101925.91;5023637;28;20026;-73
2021/11/14 07:13:10;;;;;;;5.43;2.50;;;;;;;5.89;85.72;101925.84;5023829;28;20018;-73
2021/11/14 07:15:36;;;;;;;7.78;3.33;;;;;;;5.89;85.79;101931.91;5022485;28;20030;-74
2021/11/14 07:18:01;;;;;;;6.90;2.40;;;;;;;5.91;85.71;101937.09;5023697;28;20033;-73
2021/11/14 07:20:27;;;;;;;4.10;2.90;;;;;;;5.86;85.80;101938.63;5023810;28;20085;-73
2021/11/14 07:22:52;;;;;;;7.68;2.88;;;;;;;5.89;85.91;101951.63;5023745;28;20065;-74
2021/11/14 07:25:19;;;;;;;7.00;4.20;;;;;;;5.87;85.85;101959.31;5023317;28;20037;-73
2021/11/14 07:27:49;;;;;;;9.25;3.50;;;;;;;5.94;85.99;101969.00;5023798;28;20025;-73
2021/11/14 07:30:15;;;;;;;10.15;3.28;;;;;;;5.93;86.19;101976.69;5023990;28;20058;-72
2021/11/14 07:32:41;;;;;;;6.75;3.60;;;;;;;5.96;85.85;101979.38;5022379;28;20500;-74
2021/11/14 07:35:09;;;;;;;5.43;2.28;;;;;;;5.93;85.50;101985.31;5023682;28;20026;-75
2021/11/14 07:37:35;;;;;;;5.72;2.55;;;;;;;5.93;85.72;101995.63;5023469;28;20034;-75
2021/11/14 07:40:00;;;;;;;5.03;2.53;;;;;;;5.84;85.64;101982.38;5023546;28;20037;-73
2021/11/14 07:42:26;;;;;;;6.45;2.97;;;;;;;5.86;85.54;101998.81;5023478;28;20018;-72
2021/11/14 07:44:51;;;;;;;8.98;3.15;;;;;;;5.88;85.83;102012.59;5023576;28;20045;-72
2021/11/14 07:47:16;;;;;;;7.20;3.25;;;;;;;5.88;85.57;102012.59;5023452;28;20390;-73
2021/11/14 07:49:42;;;;;;;2.85;2.35;;;;;;;5.85;85.79;102015.06;5022822;28;20037;-73
2021/11/14 07:52:07;;;;;;;10.18;3.40;;;;;;;5.88;85.86;102024.63;5023350;28;20096;-73
2021/11/14 07:54:33;;;;;;;9.27;3.13;;;;;;;5.84;85.77;102013.31;5023119;28;20037;-73
2021/11/14 07:56:58;;;;;;;10.50;3.67;;;;;;;5.86;85.58;102022.00;5021791;28;20045;-73
2021/11/14 07:59:24;;;;;;;8.65;3.10;;;;;;;5.90;85.48;102015.22;5023443;28;20057;-73
2021/11/14 08:01:49;;;;;;;5.00;2.55;;;;;;;5.84;85.40;102015.91;5023335;28;20030;-74
2021/11/14 08:04:14;;;;;;;8.57;3.10;;;;;;;5.83;85.15;102009.84;5023160;28;20036;-73
2021/11/14 08:06:40;;;;;;;6.72;2.92;;;;;;;5.78;85.18;102007.94;5023331;28;20108;-73
2021/11/14 08:09:05;;;;;;;7.35;2.78;;;;;;;5.81;85.00;102031.25;5023252;28;20454;-73
2021/11/14 08:11:31;;;;;;;8.75;3.20;;;;;;;5.83;85.24;102027.91;5022664;28;20089;-74
2021/11/14 08:13:56;;;;;;;4.78;2.47;;;;;;;5.81;85.07;102032.09;5023237;28;20469;-75
2021/11/14 08:16:21;;;;;;;6.00;3.05;;;;;;;5.81;85.22;102031.25;5023086;28;20519;-75
2021/11/14 08:18:47;;;;;;;3.83;2.20;;;;;;;5.84;84.52;102026.22;5023055;28;20053;-75
2021/11/14 08:21:12;;;;;;;7.03;2.38;;;;;;;5.80;84.78;102042.34;5023381;28;20048;-75
2021/11/14 08:23:37;;;;;;;10.95;3.13;;;;;;;5.87;84.49;102041.78;5022969;28;20029;-76
2021/11/14 08:26:03;;;;;;;7.38;2.63;;;;;;;5.81;84.71;102037.25;5022891;28;20026;-75
2021/11/14 08:28:30;;;;;;;2.67;1.65;;;;;;;5.80;84.53;102039.78;5021471;28;20029;-75
2021/11/14 08:30:55;;;;;;;4.43;3.00;;;;;;;5.69;84.79;102044.53;5023202;28;20080;-76
2021/11/14 08:33:21;;;;;;;3.50;2.60;;;;;;;5.67;84.63;102049.63;5022992;28;20026;-76
2021/11/14 08:35:46;;;;;;;6.07;2.70;;;;;;;5.81;83.31;102044.13;5023261;28;20026;-75
2021/11/14 08:38:12;;;;;;;4.63;2.17;;;;;;;5.74;84.12;102039.56;5023060;28;20030;-76
2021/11/14 08:40:38;;;;;;;6.57;2.80;;;;;;;5.75;84.21;102052.50;5023021;28;20018;-76
2021/11/14 08:43:05;;;;;;;7.53;2.83;;;;;;;5.75;84.35;102056.78;5022957;28;20025;-76
2021/11/14 08:45:32;;;;;;;5.60;2.88;;;;;;;5.75;84.29;102054.22;5022796;28;20044;-76
2021/11/14 08:47:58;;;;;;;7.97;3.95;;;;;;;5.74;84.25;102039.56;5023306;28;20022;-78
2021/11/14 08:50:26;;;;;;;5.65;2.88;;;;;;;5.85;83.43;102043.41;5021700;28;20029;-77
2021/11/14 08:52:54;;;;;;;3.67;1.92;;;;;;;5.82;83.57;102058.78;5022542;28;20022;-73
2021/11/14 08:55:22;;;;;;;5.35;2.70;;;;;;;5.79;83.41;102046.66;5022596;28;20113;-74
2021/11/14 08:57:50;;;;;;;5.53;2.22;;;;;;;5.86;83.05;102062.34;5023186;28;20049;-73
2021/11/14 09:00:20;;;;;;;6.93;2.40;;;;;;;5.80;82.88;102056.13;5022545;28;20088;-76
2021/11/14 09:02:46;;;;;;;6.25;2.17;;;;;;;5.87;82.31;102061.53;5026576;28;20026;-73
2021/11/14 09:05:11;;;;;;;5.30;2.03;;;;;;;5.83;82.84;102070.88;5024785;28;20022;-74
2021/11/14 09:07:37;;;;;;;7.57;2.42;;;;;;;5.88;83.17;102063.31;5026417;28;20026;-75
2021/11/14 09:10:04;;;;;;;5.97;2.17;;;;;;;5.89;82.96;102073.66;5026311;28;20057;-76
2021/11/14 09:12:29;;;;;;;5.20;2.50;;;;;;;6.01;82.47;102086.13;5025739;28;20026;-72
2021/11/14 09:14:56;;;;;;;3.28;1.58;;;;;;;6.01;82.61;102093.88;5024524;28;20028;-73
2021/11/14 09:17:23;;;;;;;5.90;2.00;;;;;;;6.03;82.83;102093.91;5026393;28;20021;-73
2021/11/14 09:19:48;;;;;;;5.85;2.10;;;;;;;6.01;82.88;102088.72;5026063;28;20033;-77
2021/11/14 09:22:13;;;;;;;6.30;2.42;;;;;;;6.04;82.32;102087.94;5026230;28;20025;-75
2021/11/14 09:24:39;;;;;;;6.60;2.80;;;;;;;6.09;82.61;102095.91;5024751;28;20026;-74
2021/11/14 09:27:06;;;;;;;2.47;1.75;;;;;;;6.09;82.60;102091.59;5025800;28;20026;-75
2021/11/14 09:29:31;;;;;;;5.90;2.60;;;;;;;6.09;82.46;102089.03;5026060;28;20117;-74
2021/11/14 09:31:57;;;;;;;3.85;2.70;;;;;;;6.15;82.72;102109.03;5025877;28;20022;-77
2021/11/14 09:34:22;;;;;;;3.72;2.05;;;;;;;6.22;82.49;102102.38;5024221;28;20409;-77
2021/11/14 09:36:48;;;;;;;4.53;1.92;;;;;;;6.16;82.56;102103.03;5025764;28;20018;-76
2021/11/14 09:39:13;;;;;;;3.65;2.35;;;;;;;6.22;82.48;102110.09;5025656;28;20049;-77
2021/11/14 09:41:48;;;;;;;6.15;2.13;;;;;;;6.14;82.50;102110.72;5025521;28;20026;-76
2021/11/14 09:44:17;;;;;;;3.40;1.85;;;;;;;6.25;82.73;102125.69;5024365;28;20075;-77
2021/11/14 09:46:51;;;;;;;7.15;2.60;;;;;;;6.28;82.27;102136.13;5024251;28;20079;-76
2021/11/14 09:49:22;;;;;;;5.10;2.05;;;;;;;6.32;81.93;102125.13;5025844;28;20069;-76
2021/11/14 09:51:49;;;;;;;3.10;1.90;;;;;;;6.29;81.63;102125.88;5024021;28;20029;-77
2021/11/14 09:54:16;;;;;;;5.55;2.03;;;;;;;6.22;81.51;102115.25;5024078;28;20289;-71
2021/11/14 09:56:41;;;;;;;3.72;1.88;;;;;;;6.25;81.86;102129.16;5025177;28;20374;-78
2021/11/14 09:59:08;;;;;;;2.78;1.98;;;;;;;6.29;81.64;102125.00;5025374;28;20529;-70
2021/11/14 10:01:34;;;;;;;5.57;2.13;;;;;;;6.41;81.50;102132.31;5025113;28;20092;-69
2021/11/14 10:04:00;;;;;;;4.22;2.42;;;;;;;6.42;81.01;102128.91;5024946;28;20030;-70
2021/11/14 10:06:26;;;;;;;3.17;1.63;;;;;;;6.52;80.83;102136.16;5024868;28;20030;-70
2021/11/14 10:08:52;;;;;;;3.95;2.55;;;;;;;6.52;79.81;102138.75;5024961;28;20022;-69
2021/11/14 10:11:17;;;;;;;5.40;2.00;;;;;;;6.42;80.42;102127.19;5023402;28;20133;-76
2021/11/14 10:13:48;;;;;;;2.78;1.92;;;;;;;6.56;80.05;102138.06;5024638;28;20018;-73
2021/11/14 10:16:19;;;;;;;3.05;1.95;;;;;;;6.66;80.21;102138.38;5024853;28;20037;-72
2021/11/14 10:19:00;;;;;;;3.47;2.13;;;;;;;6.69;79.58;102151.41;5025097;28;20390;-74
2021/11/14 10:21:31;;;;;;;6.53;2.00;;;;;;;6.66;78.87;102149.56;5025037;28;20029;-74
2021/11/14 10:24:06;;;;;;;8.88;2.15;;;;;;;6.64;78.82;102150.34;5024902;28;20026;-73
2021/11/14 10:26:32;;;;;;;3.28;1.90;;;;;;;6.67;78.90;102159.09;5024303;28;20036;-66
2021/11/14 10:29:01;;;;;;;4.53;2.17;;;;;;;6.61;78.99;102155.41;5024538;28;20121;-73
2021/11/14 10:31:27;;;;;;;5.25;1.85;;;;;;;6.59;78.20;102142.44;5024811;28;20018;-74
2021/11/14 10:33:53;;;;;;;3.38;1.75;;;;;;;6.63;78.46;102159.78;5024382;28;20025;-75
2021/11/14 10:36:21;;;;;;;2.85;1.67;;;;;;;6.64;78.02;102150.34;5024622;28;20025;-72
2021/11/14 10:38:47;;;;;;;7.20;2.35;;;;;;;6.63;77.43;102157.19;5024371;28;20026;-72
2021/11/14 10:41:14;;;;;;;4.03;1.75;;;;;;;6.62;77.26;102151.97;5022750;28;20017;-75
2021/11/14 10:43:40;;;;;;;2.15;1.27;;;;;;;6.62;77.03;102163.19;5023250;28;20038;-76
2021/11/14 10:46:23;;;;;;;5.15;1.90;;;;;;;6.60;76.99;102148.47;5024422;28;20567;-77
2021/11/14 10:48:49;;;;;;;3.28;1.92;;;;;;;6.61;77.79;102151.13;5022958;28;20118;-73
2021/11/14 10:51:16;;;;;;;4.00;1.92;;;;;;;6.69;77.12;102149.66;5024366;28;20084;-77
2021/11/14 10:53:45;;;;;;;2.72;1.73;;;;;;;6.72;77.33;102166.09;5024309;28;20029;-77
2021/11/14 10:56:12;;;;;;;2.65;1.45;;;;;;;6.82;76.23;102163.91;5024095;28;20026;-72
2021/11/14 10:58:41;;;;;;;2.22;1.20;;;;;;;6.84;75.97;102161.38;5024297;28;20026;-77
2021/11/14 11:01:11;;;;;;;6.75;1.77;;;;;;;6.82;75.73;102170.78;5023841;28;20459;-71
2021/11/14 11:03:48;;;;;;;4.45;2.10;;;;;;;6.91;75.16;102176.28;5023536;28;20492;-65
2021/11/14 11:06:23;;;;;;;5.28;1.85;;;;;;;6.91;74.43;102165.94;5023988;28;20022;-72
2021/11/14 11:08:49;;;;;;;2.45;1.55;;;;;;;6.96;75.92;102172.97;5023688;28;20490;-69
2021/11/14 11:11:19;;;;;;;27.90;2.80;;;;;;;6.94;76.00;102173.78;5023685;28;20045;-72
2021/11/14 11:13:47;;;;;;;2.67;1.80;;;;;;;7.11;76.49;102175.22;5022572;28;20450;-67
2021/11/14 11:16:15;;;;;;;2.60;1.70;;;;;;;7.19;76.19;102179.81;5022338;28;20335;-74
2021/11/14 11:18:44;;;;;;;2.38;1.38;;;;;;;7.22;76.24;102180.75;5023862;28;20387;-67
2021/11/14 11:21:10;;;;;;;2.28;1.60;;;;;;;7.32;75.68;102191.44;5023757;28;20085;-69
2021/11/14 11:23:45;;;;;;;3.15;1.40;;;;;;;7.31;75.90;102175.88;5023410;28;20026;-72
2021/11/14 11:26:14;;;;;;;3.25;1.67;;;;;;;7.36;74.55;102194.13;5022710;28;20021;-71
2021/11/14 11:28:48;;;;;;;2.95;1.70;;;;;;;7.21;73.73;102191.88;5023494;28;20021;-73
2021/11/14 11:31:22;;;;;;;2.15;1.38;;;;;;;7.08;73.95;102199.22;5023464;28;20496;-72